createdAt,value
2022-11-17T00:35:41.255Z,67.08
2022-11-17T00:39:20.596Z,66.96
2022-11-17T00:55:34.874Z,65.30
2022-11-17T00:58:39.682Z,64.49
2022-11-17T01:01:43.366Z,64.01
2022-11-17T01:04:47.186Z,63.82
2022-11-17T01:07:50.130Z,63.83
2022-11-17T01:10:54.256Z,62.98
2022-11-17T01:13:59.577Z,62.57
2022-11-17T01:17:02.637Z,62.17
2022-11-17T01:20:07.052Z,62.12
2022-11-17T01:23:11.165Z,61.76
2022-11-17T01:26:17.885Z,61.08
2022-11-17T01:29:21.419Z,61.34
2022-11-17T01:32:24.407Z,60.47
2022-11-17T04:23:15.941Z,58.03
2022-11-17T04:26:58.189Z,56.72
2022-11-17T04:30:02.334Z,54.71
2022-11-17T04:33:05.669Z,53.02
2022-11-17T04:36:10.177Z,50.83
2022-11-17T04:39:15.804Z,49.38
2022-11-17T04:42:19.834Z,47.26
2022-11-17T04:45:23.165Z,46.06
2022-11-17T04:48:26.548Z,45.79
2022-11-17T04:51:31.028Z,45.35
2022-11-17T04:54:33.916Z,45.16
2022-11-17T04:57:37.530Z,45.81
2022-11-17T05:00:41.470Z,46.34
2022-11-17T05:03:53.380Z,46.74
2022-11-17T05:06:57.377Z,46.50
2022-11-17T05:10:01.754Z,46.61
2022-11-17T05:13:23.257Z,46.55
2022-11-17T05:16:45.571Z,47.16
2022-11-17T05:19:49.633Z,47.20
2022-11-17T05:23:11.009Z,47.20
2022-11-17T05:26:15.090Z,47.16
2022-11-17T05:29:20.911Z,47.23
2022-11-17T05:32:24.450Z,47.37
2022-11-17T05:35:28.210Z,48.23
2022-11-17T05:38:32.604Z,47.56
2022-11-17T05:41:37.732Z,48.59
2022-11-17T05:44:41.685Z,48.47
2022-11-17T05:47:44.920Z,48.96
2022-11-17T05:50:48.252Z,47.97
2022-11-17T05:53:51.711Z,47.34
2022-11-17T05:57:07.532Z,46.83
2022-11-17T06:00:11.586Z,46.40
2022-11-17T06:03:29.703Z,47.03
2022-11-17T06:06:35.485Z,46.50
2022-11-17T06:09:42.670Z,47.02
2022-11-17T06:12:45.605Z,47.05
2022-11-17T06:15:49.626Z,46.71
2022-11-17T06:19:03.310Z,47.30
2022-11-17T06:22:12.577Z,47.72
2022-11-17T06:25:18.767Z,47.56
2022-11-17T06:28:24.284Z,47.86
2022-11-17T06:31:28.871Z,47.63
2022-11-17T06:34:33.834Z,47.62
2022-11-17T06:37:37.478Z,47.56
2022-11-17T06:40:41.598Z,47.07
2022-11-17T06:43:44.794Z,47.79
2022-11-17T06:46:49.356Z,47.18
2022-11-17T06:49:52.753Z,47.72
2022-11-17T06:53:00.767Z,47.04
2022-11-17T06:56:12.474Z,47.21
2022-11-17T06:59:16.639Z,46.53
2022-11-17T07:02:20.952Z,46.85
2022-11-17T07:05:24.565Z,47.39
2022-11-17T07:08:28.765Z,47.96
2022-11-17T07:11:36.582Z,48.32
2022-11-17T07:14:40.340Z,48.92
2022-11-17T07:17:43.878Z,49.20
2022-11-17T07:20:49.035Z,49.62
2022-11-17T07:23:52.064Z,49.58
2022-11-17T07:26:56.149Z,49.39
2022-11-17T07:30:00.053Z,49.13
2022-11-17T07:33:03.845Z,48.94
2022-11-17T07:36:10.208Z,48.89
2022-11-17T07:39:21.054Z,49.11
2022-11-17T07:42:24.933Z,48.87
2022-11-17T07:45:31.831Z,49.43
2022-11-17T07:48:37.199Z,49.76
2022-11-17T07:51:41.230Z,49.75
2022-11-17T07:54:44.622Z,49.60
2022-11-17T07:57:48.846Z,50.50
2022-11-17T08:00:52.181Z,50.65
2022-11-17T08:03:56.489Z,50.79
2022-11-17T08:07:00.286Z,51.02
2022-11-17T08:10:03.701Z,51.44
2022-11-17T08:13:08.036Z,51.55
2022-11-17T08:16:13.351Z,52.01
2022-11-17T08:19:19.616Z,51.99
2022-11-17T08:22:23.603Z,52.37
2022-11-17T08:25:27.812Z,52.67
2022-11-17T08:28:31.852Z,53.37
2022-11-17T08:31:35.391Z,54.20
2022-11-17T08:34:38.757Z,55.04
2022-11-17T08:37:42.425Z,55.92
2022-11-17T08:40:48.509Z,56.57
2022-11-17T08:43:52.251Z,57.04
2022-11-17T08:46:56.087Z,57.16
2022-11-17T08:49:59.426Z,57.28
2022-11-17T08:53:03.323Z,57.46
2022-11-17T08:56:11.986Z,57.52
2022-11-17T08:59:16.289Z,57.50
2022-11-17T09:02:19.939Z,57.45
2022-11-17T09:05:25.535Z,57.37
2022-11-17T09:08:46.002Z,57.05
2022-11-17T09:11:50.278Z,56.93
2022-11-17T09:14:53.886Z,56.94
2022-11-17T09:17:57.542Z,56.98
2022-11-17T09:21:02.884Z,56.99
2022-11-17T09:24:07.233Z,57.00
2022-11-17T09:27:10.558Z,57.18
2022-11-17T09:30:15.325Z,57.61
2022-11-17T09:33:18.822Z,57.83
2022-11-17T09:36:23.095Z,58.16
2022-11-17T09:39:26.832Z,58.77
2022-11-17T09:42:31.816Z,59.79
2022-11-17T09:45:39.542Z,60.10
2022-11-17T09:48:59.682Z,60.66
2022-11-17T09:52:19.713Z,60.98
2022-11-17T09:55:48.239Z,61.55
2022-11-17T09:58:57.270Z,61.86
2022-11-17T10:02:00.927Z,62.08
2022-11-17T10:05:04.764Z,62.12
2022-11-17T10:08:12.686Z,62.34
2022-11-17T10:11:33.131Z,62.48
2022-11-17T10:14:40.376Z,62.94
2022-11-17T10:17:43.941Z,63.26
2022-11-17T10:20:47.792Z,63.30
2022-11-17T10:24:00.047Z,63.67
2022-11-17T10:27:19.193Z,64.00
2022-11-17T10:30:25.012Z,64.37
2022-11-17T10:33:35.964Z,64.48
2022-11-17T10:36:48.764Z,64.66
2022-11-17T10:40:08.421Z,64.93
2022-11-17T10:43:15.741Z,65.26
2022-11-17T10:46:19.409Z,65.66
2022-11-17T10:49:29.108Z,65.96
2022-11-17T10:52:32.666Z,65.85
2022-11-17T10:55:37.623Z,65.85
2022-11-17T10:59:09.156Z,65.65
2022-11-17T11:02:21.031Z,65.54
2022-11-17T11:05:24.441Z,65.59
2022-11-17T11:08:31.496Z,65.54
2022-11-17T11:11:43.956Z,65.92
2022-11-17T11:14:53.499Z,66.04
2022-11-17T11:17:58.387Z,66.16
2022-11-17T11:21:30.066Z,66.43
2022-11-17T11:24:59.777Z,66.96
2022-11-17T11:28:14.293Z,67.16
2022-11-17T11:31:47.079Z,67.71
2022-11-17T11:35:25.751Z,67.83
2022-11-17T11:38:53.990Z,67.76
2022-11-17T11:42:12.031Z,67.61
2022-11-17T11:46:08.255Z,67.49
2022-11-17T11:49:38.983Z,66.92
2022-11-17T11:52:49.260Z,66.91
2022-11-17T11:56:17.742Z,67.06
2022-11-17T11:59:36.541Z,66.94
2022-11-17T12:03:11.387Z,67.12
2022-11-17T12:06:34.099Z,67.37
2022-11-17T12:09:37.716Z,67.93
2022-11-17T12:12:42.281Z,68.25
2022-11-17T12:15:46.381Z,67.82
2022-11-17T12:18:50.471Z,67.74
2022-11-17T12:21:57.166Z,67.30
2022-11-17T12:25:16.144Z,67.09
2022-11-17T12:28:42.086Z,67.06
2022-11-17T12:31:47.418Z,66.98
2022-11-17T12:35:29.336Z,66.99
2022-11-17T12:38:32.945Z,67.31
2022-11-17T12:41:54.644Z,67.15
2022-11-17T12:45:09.951Z,66.92
2022-11-17T12:48:33.053Z,67.15
2022-11-17T12:51:46.722Z,67.08
2022-11-17T12:55:01.769Z,67.57
2022-11-17T12:58:23.260Z,67.88
2022-11-17T13:01:32.211Z,67.15
2022-11-17T13:04:52.011Z,67.15
2022-11-17T13:08:15.829Z,66.98
2022-11-17T13:11:19.419Z,66.94
2022-11-17T13:14:23.114Z,67.21
2022-11-17T13:17:42.920Z,66.85
2022-11-17T13:20:49.101Z,66.87
2022-11-17T13:23:54.178Z,66.78
2022-11-17T13:27:02.879Z,66.84
2022-11-17T13:30:22.046Z,66.65
2022-11-17T13:33:27.033Z,66.61
2022-11-17T13:36:31.183Z,66.78
2022-11-17T13:39:35.163Z,66.99
2022-11-17T13:42:38.287Z,67.15
2022-11-17T13:45:44.319Z,67.22
2022-11-17T13:48:49.463Z,67.26
2022-11-17T13:51:53.744Z,67.22
2022-11-17T13:54:57.693Z,67.21
2022-11-17T13:58:26.285Z,67.27
2022-11-17T14:01:33.319Z,67.41
2022-11-17T14:04:36.901Z,67.46
2022-11-17T14:07:41.409Z,67.58
2022-11-17T14:10:46.328Z,67.70
2022-11-17T14:13:52.977Z,67.92
2022-11-17T14:16:58.419Z,68.08
2022-11-17T14:20:31.156Z,67.68
2022-11-17T14:23:34.893Z,67.32
2022-11-17T14:26:45.127Z,66.87
2022-11-17T14:29:48.514Z,66.65
2022-11-17T14:32:52.310Z,66.29
2022-11-17T14:36:00.232Z,65.99
2022-11-17T14:39:11.519Z,65.79
2022-11-17T14:42:15.473Z,65.67
2022-11-17T14:45:18.737Z,65.47
2022-11-17T14:48:23.252Z,65.36
2022-11-17T14:51:27.288Z,65.24
2022-11-17T14:54:30.531Z,65.11
2022-11-17T14:57:33.425Z,64.90
2022-11-17T15:00:36.703Z,64.68
2022-11-17T15:03:40.496Z,64.44
2022-11-17T15:06:47.187Z,64.32
2022-11-17T15:09:50.274Z,64.16
2022-11-17T15:12:53.939Z,64.09
2022-11-17T15:16:05.633Z,64.26
2022-11-17T15:19:09.014Z,64.24
2022-11-17T15:22:16.235Z,64.52
2022-11-17T15:25:20.246Z,64.36
2022-11-17T15:28:27.588Z,64.04
2022-11-17T15:31:33.706Z,63.70
2022-11-17T15:34:37.583Z,64.12
2022-11-17T15:37:41.573Z,64.11
2022-11-17T15:40:44.667Z,63.86
2022-11-17T15:43:49.041Z,64.03
2022-11-17T15:46:52.814Z,64.04
2022-11-17T15:49:59.340Z,64.02
2022-11-17T15:53:04.413Z,63.75
2022-11-17T15:56:11.488Z,63.87
2022-11-17T15:59:15.797Z,63.86
2022-11-17T16:02:20.126Z,64.09
2022-11-17T16:05:23.543Z,64.08
2022-11-17T16:08:27.553Z,64.02
2022-11-17T16:11:31.023Z,64.48
2022-11-17T16:14:35.478Z,64.60
2022-11-17T16:17:39.136Z,64.45
2022-11-17T16:20:43.375Z,64.29
2022-11-17T16:23:52.164Z,64.10
2022-11-17T16:26:55.784Z,63.59
2022-11-17T16:29:58.977Z,63.26
2022-11-17T16:33:04.071Z,63.54
2022-11-17T16:36:08.459Z,64.37
2022-11-17T16:39:15.972Z,64.67
2022-11-17T16:42:20.718Z,64.81
2022-11-17T16:45:24.027Z,64.93
2022-11-17T16:48:27.758Z,64.90
2022-11-17T16:51:32.219Z,65.41
2022-11-17T16:54:35.883Z,65.46
2022-11-17T16:57:39.444Z,65.80
2022-11-17T17:00:43.094Z,66.86
2022-11-17T17:03:47.533Z,66.31
2022-11-17T17:06:50.861Z,66.30
2022-11-17T17:09:54.992Z,66.32
2022-11-17T17:12:58.314Z,66.70
2022-11-17T17:16:21.702Z,66.24
2022-11-17T17:19:25.354Z,66.06
2022-11-17T17:22:29.098Z,66.62
2022-11-17T17:25:33.257Z,68.14
2022-11-17T17:28:41.126Z,68.44
2022-11-17T17:31:44.944Z,68.26
2022-11-17T17:34:48.618Z,68.12
2022-11-17T17:37:52.399Z,68.00
2022-11-17T17:40:56.296Z,68.03
2022-11-17T17:44:04.570Z,68.13
2022-11-17T17:47:08.399Z,68.14
2022-11-17T17:50:12.103Z,68.11
2022-11-17T17:53:15.709Z,67.98
2022-11-17T17:56:20.468Z,67.92
2022-11-17T17:59:24.670Z,67.90
2022-11-17T18:02:28.309Z,67.86
2022-11-17T18:05:32.094Z,67.58
2022-11-17T18:08:36.382Z,68.13
2022-11-17T18:11:46.515Z,67.94
2022-11-17T18:14:50.237Z,67.85
2022-11-17T18:17:54.249Z,67.74
2022-11-17T18:21:03.381Z,68.04
2022-11-17T18:24:10.595Z,67.99
2022-11-17T18:27:13.613Z,68.13
2022-11-17T18:30:17.617Z,68.48
2022-11-17T18:33:21.320Z,68.71
2022-11-17T18:36:25.528Z,68.60
2022-11-17T18:39:32.136Z,68.25
2022-11-17T18:42:35.433Z,68.00
2022-11-17T18:45:39.896Z,67.94
2022-11-17T18:48:45.240Z,67.57
2022-11-17T18:51:48.990Z,67.66
2022-11-17T18:54:52.008Z,67.66
2022-11-17T18:57:55.958Z,67.82
2022-11-17T19:01:07.753Z,68.11
2022-11-17T19:04:14.625Z,68.16
2022-11-17T19:07:17.942Z,68.23
2022-11-17T19:10:22.190Z,68.14
2022-11-17T19:13:26.269Z,68.30
2022-11-17T19:16:31.125Z,68.18
2022-11-17T19:19:34.829Z,67.91
2022-11-17T19:22:38.590Z,66.99
2022-11-17T19:25:43.051Z,67.43
2022-11-17T19:28:47.212Z,68.19
2022-11-17T19:31:52.872Z,69.17
2022-11-17T19:35:06.189Z,69.95
2022-11-17T19:38:16.132Z,70.24
2022-11-17T19:41:21.849Z,70.00
2022-11-17T19:44:25.620Z,70.05
2022-11-17T19:47:29.568Z,70.02
2022-11-17T19:50:34.249Z,69.86
2022-11-17T19:53:38.745Z,69.50
2022-11-17T19:56:42.106Z,69.58
2022-11-17T19:59:45.874Z,69.07
2022-11-17T20:02:48.870Z,69.76
2022-11-17T20:05:53.065Z,70.55
2022-11-17T20:08:57.875Z,69.77
2022-11-17T20:12:01.145Z,70.73
2022-11-17T20:15:04.104Z,71.17
2022-11-17T20:18:07.448Z,70.84
2022-11-17T20:21:11.877Z,71.07
2022-11-17T20:24:14.964Z,71.01
2022-11-17T20:27:18.590Z,70.70
2022-11-17T20:30:21.650Z,70.04
2022-11-17T20:33:24.644Z,69.12
2022-11-17T20:36:31.020Z,68.08
2022-11-17T20:39:34.789Z,67.51
2022-11-17T20:42:38.411Z,67.61
2022-11-17T20:45:42.421Z,66.97
2022-11-17T20:48:46.481Z,66.97
2022-11-17T20:51:50.178Z,67.54
2022-11-17T20:54:53.215Z,67.59
2022-11-17T20:57:57.295Z,68.66
2022-11-17T21:01:08.869Z,69.40
2022-11-17T21:04:13.154Z,69.52
2022-11-17T21:07:17.016Z,68.42
2022-11-17T21:10:20.087Z,68.43
2022-11-17T21:13:23.589Z,67.82
2022-11-17T21:16:27.376Z,67.46
2022-11-17T21:19:32.403Z,67.10
2022-11-17T21:22:38.914Z,68.48
2022-11-17T21:25:42.722Z,68.91
2022-11-17T21:28:46.194Z,69.24
2022-11-17T21:31:50.392Z,70.13
2022-11-17T21:34:53.734Z,69.83
2022-11-17T21:37:57.197Z,69.34
2022-11-17T21:41:10.518Z,69.24
2022-11-17T21:44:14.826Z,68.84
2022-11-17T21:47:20.673Z,69.04
2022-11-17T21:50:24.161Z,68.73
2022-11-17T21:53:28.933Z,67.87
2022-11-17T21:56:32.875Z,68.03
2022-11-17T21:59:36.237Z,65.47
2022-11-17T22:02:39.388Z,67.48
2022-11-17T22:05:42.342Z,65.64
2022-11-17T22:08:46.664Z,65.27
2022-11-17T22:11:52.014Z,65.64
2022-11-17T22:14:55.379Z,65.62
2022-11-17T22:17:58.432Z,65.87
2022-11-17T22:21:02.640Z,66.14
2022-11-17T22:24:07.771Z,66.00
2022-11-17T22:27:11.848Z,65.79
2022-11-17T22:30:15.309Z,65.88
2022-11-17T22:33:18.983Z,66.36
2022-11-17T22:36:22.051Z,66.88
2022-11-17T22:39:26.137Z,67.16
2022-11-17T22:42:29.074Z,66.98
2022-11-17T22:45:36.339Z,66.98
2022-11-17T22:48:40.352Z,66.86
2022-11-17T22:52:02.889Z,67.05
2022-11-17T22:55:06.256Z,67.07
2022-11-17T22:58:10.956Z,67.65
2022-11-17T23:01:14.301Z,68.71
2022-11-17T23:04:18.101Z,68.33
2022-11-17T23:07:21.305Z,68.12
2022-11-17T23:10:25.233Z,68.48
2022-11-17T23:13:29.669Z,68.65
2022-11-17T23:16:33.915Z,67.81
2022-11-17T23:19:37.526Z,67.53
2022-11-17T23:22:40.945Z,67.02
2022-11-17T23:25:44.291Z,67.24
2022-11-17T23:28:48.438Z,67.34
2022-11-17T23:31:51.439Z,66.33
2022-11-17T23:34:55.592Z,65.83
2022-11-17T23:37:59.192Z,65.83
2022-11-17T23:41:03.908Z,65.80
2022-11-17T23:44:07.665Z,65.82
2022-11-17T23:47:11.790Z,65.97
2022-11-17T23:50:15.205Z,66.29
2022-11-17T23:53:19.494Z,66.31
2022-11-17T23:56:23.698Z,66.43
2022-11-17T23:59:27.450Z,66.16
